sensor_id;sensor_type;location;lat;lon;timestamp;pressure;altitude;pressure_sealevel;temperature;humidity
30724;BME280;17473;52.286;20.930;2023-05-19T00:01:24;101443.19;;;12.33;81.21
30724;BME280;17473;52.286;20.930;2023-05-19T00:03:54;101438.34;;;12.23;81.45
30724;BME280;17473;52.286;20.930;2023-05-19T00:06:25;101428.31;;;12.16;82.20
30724;BME280;17473;52.286;20.930;2023-05-19T00:09:01;101433.56;;;12.14;82.79
30724;BME280;17473;52.286;20.930;2023-05-19T00:11:29;101430.44;;;12.25;82.48
30724;BME280;17473;52.286;20.930;2023-05-19T00:13:58;101432.38;;;12.08;84.15
30724;BME280;17473;52.286;20.930;2023-05-19T00:16:27;101426.25;;;12.09;84.89
30724;BME280;17473;52.286;20.930;2023-05-19T00:18:57;101438.75;;;12.13;84.89
30724;BME280;17473;52.286;20.930;2023-05-19T00:21:26;101436.53;;;12.22;84.53
30724;BME280;17473;52.286;20.930;2023-05-19T00:23:54;101429.50;;;12.23;85.19
30724;BME280;17473;52.286;20.930;2023-05-19T00:26:22;101436.34;;;12.39;84.73
30724;BME280;17473;52.286;20.930;2023-05-19T00:28:49;101434.47;;;12.36;85.28
30724;BME280;17473;52.286;20.930;2023-05-19T00:31:16;101431.38;;;12.25;85.61
30724;BME280;17473;52.286;20.930;2023-05-19T00:33:44;101423.06;;;12.17;85.33
30724;BME280;17473;52.286;20.930;2023-05-19T00:36:11;101434.78;;;12.23;84.98
30724;BME280;17473;52.286;20.930;2023-05-19T00:38:38;101436.25;;;11.96;85.84
30724;BME280;17473;52.286;20.930;2023-05-19T00:41:06;101431.53;;;12.09;86.52
30724;BME280;17473;52.286;20.930;2023-05-19T00:43:33;101434.03;;;12.25;84.97
30724;BME280;17473;52.286;20.930;2023-05-19T00:46:01;101439.88;;;12.18;85.54
30724;BME280;17473;52.286;20.930;2023-05-19T00:48:29;101427.41;;;12.15;86.37
30724;BME280;17473;52.286;20.930;2023-05-19T00:50:57;101428.16;;;11.93;87.74
30724;BME280;17473;52.286;20.930;2023-05-19T00:53:31;101411.81;;;11.82;88.58
30724;BME280;17473;52.286;20.930;2023-05-19T00:56:00;101428.16;;;11.93;88.48
30724;BME280;17473;52.286;20.930;2023-05-19T00:58:28;101432.13;;;11.83;88.36
30724;BME280;17473;52.286;20.930;2023-05-19T01:00:58;101427.41;;;11.76;90.06
30724;BME280;17473;52.286;20.930;2023-05-19T01:03:34;101429.56;;;11.85;89.68
30724;BME280;17473;52.286;20.930;2023-05-19T01:06:03;101420.38;;;11.96;88.49
30724;BME280;17473;52.286;20.930;2023-05-19T01:08:35;101425.31;;;11.69;90.90
30724;BME280;17473;52.286;20.930;2023-05-19T01:11:05;101419.38;;;11.74;90.68
30724;BME280;17473;52.286;20.930;2023-05-19T01:13:34;101416.25;;;11.83;90.09
30724;BME280;17473;52.286;20.930;2023-05-19T01:16:32;101426.28;;;11.90;89.30
30724;BME280;17473;52.286;20.930;2023-05-19T01:30:43;101419.38;;;11.74;90.33
30724;BME280;17473;52.286;20.930;2023-05-19T01:33:13;101409.66;;;11.54;92.16
30724;BME280;17473;52.286;20.930;2023-05-19T01:35:42;101413.75;;;11.67;91.96
30724;BME280;17473;52.286;20.930;2023-05-19T01:38:11;101408.06;;;11.77;91.44
30724;BME280;17473;52.286;20.930;2023-05-19T01:40:41;101415.06;;;11.77;92.92
30724;BME280;17473;52.286;20.930;2023-05-19T01:43:25;101410.34;;;11.69;93.12
30724;BME280;17473;52.286;20.930;2023-05-19T01:45:54;101409.44;;;11.69;93.15
30724;BME280;17473;52.286;20.930;2023-05-19T01:48:24;101409.31;;;11.85;92.83
30724;BME280;17473;52.286;20.930;2023-05-19T01:50:51;101409.78;;;11.77;93.32
30724;BME280;17473;52.286;20.930;2023-05-19T01:53:18;101399.03;;;11.93;93.03
30724;BME280;17473;52.286;20.930;2023-05-19T01:55:49;101400.22;;;11.80;93.58
30724;BME280;17473;52.286;20.930;2023-05-19T02:07:00;101393.22;;;11.81;93.55
30724;BME280;17473;52.286;20.930;2023-05-19T02:15:13;101395.78;;;11.79;93.75
30724;BME280;17473;52.286;20.930;2023-05-19T02:17:44;101377.72;;;11.69;94.82
30724;BME280;17473;52.286;20.930;2023-05-19T02:20:18;101400.59;;;11.88;94.30
30724;BME280;17473;52.286;20.930;2023-05-19T02:22:45;101393.69;;;11.92;94.32
30724;BME280;17473;52.286;20.930;2023-05-19T02:25:12;101388.25;;;11.88;94.38
30724;BME280;17473;52.286;20.930;2023-05-19T02:27:40;101396.53;;;11.96;94.52
30724;BME280;17473;52.286;20.930;2023-05-19T02:30:08;101400.44;;;11.85;95.07
30724;BME280;17473;52.286;20.930;2023-05-19T02:32:36;101394.31;;;11.86;95.17
30724;BME280;17473;52.286;20.930;2023-05-19T02:35:04;101389.31;;;11.92;94.91
30724;BME280;17473;52.286;20.930;2023-05-19T02:37:31;101396.00;;;12.03;93.25
30724;BME280;17473;52.286;20.930;2023-05-19T02:39:58;101387.16;;;11.83;93.88
30724;BME280;17473;52.286;20.930;2023-05-19T02:42:25;101386.88;;;11.77;94.79
30724;BME280;17473;52.286;20.930;2023-05-19T02:44:53;101386.59;;;11.71;94.96
30724;BME280;17473;52.286;20.930;2023-05-19T02:47:21;101387.78;;;11.58;95.22
30724;BME280;17473;52.286;20.930;2023-05-19T02:49:48;101386.25;;;11.63;95.66
30724;BME280;17473;52.286;20.930;2023-05-19T02:52:15;101397.47;;;11.77;95.06
30724;BME280;17473;52.286;20.930;2023-05-19T02:54:42;101398.00;;;11.70;95.43
30724;BME280;17473;52.286;20.930;2023-05-19T02:57:09;101394.25;;;11.65;95.80
30724;BME280;17473;52.286;20.930;2023-05-19T02:59:37;101389.19;;;11.69;96.05
30724;BME280;17473;52.286;20.930;2023-05-19T03:02:04;101393.47;;;11.67;96.23
30724;BME280;17473;52.286;20.930;2023-05-19T03:04:31;101397.38;;;11.75;96.32
30724;BME280;17473;52.286;20.930;2023-05-19T03:06:58;101395.28;;;11.68;96.74
30724;BME280;17473;52.286;20.930;2023-05-19T03:09:25;101398.22;;;11.74;96.98
30724;BME280;17473;52.286;20.930;2023-05-19T03:11:52;101399.13;;;11.75;97.39
30724;BME280;17473;52.286;20.930;2023-05-19T03:14:20;101388.28;;;11.69;97.85
30724;BME280;17473;52.286;20.930;2023-05-19T03:16:50;101403.25;;;11.68;98.10
30724;BME280;17473;52.286;20.930;2023-05-19T03:19:17;101396.19;;;12.08;95.62
30724;BME280;17473;52.286;20.930;2023-05-19T03:21:44;101397.84;;;11.65;97.92
30724;BME280;17473;52.286;20.930;2023-05-19T03:24:12;101394.09;;;11.62;99.00
30724;BME280;17473;52.286;20.930;2023-05-19T03:26:39;101395.44;;;11.91;98.15
30724;BME280;17473;52.286;20.930;2023-05-19T03:29:07;101402.28;;;12.05;96.80
30724;BME280;17473;52.286;20.930;2023-05-19T03:31:34;101399.41;;;12.01;96.40
30724;BME280;17473;52.286;20.930;2023-05-19T03:34:02;101398.50;;;11.81;97.79
30724;BME280;17473;52.286;20.930;2023-05-19T03:36:29;101402.34;;;11.68;98.80
30724;BME280;17473;52.286;20.930;2023-05-19T03:38:58;101406.72;;;11.67;98.92
30724;BME280;17473;52.286;20.930;2023-05-19T03:41:25;101407.03;;;11.73;98.15
30724;BME280;17473;52.286;20.930;2023-05-19T03:43:52;101407.34;;;11.81;97.80
30724;BME280;17473;52.286;20.930;2023-05-19T03:46:19;101410.59;;;11.95;96.96
30724;BME280;17473;52.286;20.930;2023-05-19T03:48:46;101407.44;;;11.83;97.95
30724;BME280;17473;52.286;20.930;2023-05-19T03:51:13;101399.19;;;11.77;98.33
30724;BME280;17473;52.286;20.930;2023-05-19T03:53:41;101397.69;;;11.82;97.78
30724;BME280;17473;52.286;20.930;2023-05-19T03:56:09;101400.13;;;11.77;98.48
30724;BME280;17473;52.286;20.930;2023-05-19T03:58:39;101405.19;;;11.72;98.60
30724;BME280;17473;52.286;20.930;2023-05-19T04:01:10;101399.75;;;11.69;99.32
30724;BME280;17473;52.286;20.930;2023-05-19T04:03:37;101401.94;;;11.78;99.28
30724;BME280;17473;52.286;20.930;2023-05-19T04:06:05;101401.00;;;11.78;99.03
30724;BME280;17473;52.286;20.930;2023-05-19T04:08:32;101400.66;;;11.70;99.30
30724;BME280;17473;52.286;20.930;2023-05-19T04:10:59;101405.09;;;11.71;99.55
30724;BME280;17473;52.286;20.930;2023-05-19T04:13:27;101402.53;;;11.53;100.00
30724;BME280;17473;52.286;20.930;2023-05-19T04:15:54;101405.19;;;11.72;100.00
30724;BME280;17473;52.286;20.930;2023-05-19T04:18:22;101396.84;;;11.83;99.86
30724;BME280;17473;52.286;20.930;2023-05-19T04:20:49;101405.88;;;11.68;99.49
30724;BME280;17473;52.286;20.930;2023-05-19T04:23:16;101397.38;;;11.75;100.00
30724;BME280;17473;52.286;20.930;2023-05-19T04:25:44;101400.59;;;11.68;100.00
30724;BME280;17473;52.286;20.930;2023-05-19T04:28:11;101407.28;;;11.80;99.44
30724;BME280;17473;52.286;20.930;2023-05-19T04:30:38;101411.06;;;11.65;100.00
30724;BME280;17473;52.286;20.930;2023-05-19T04:33:06;101406.09;;;11.73;100.00
30724;BME280;17473;52.286;20.930;2023-05-19T04:35:33;101408.06;;;11.77;100.00
30724;BME280;17473;52.286;20.930;2023-05-19T04:38:00;101405.69;;;11.83;99.14
30724;BME280;17473;52.286;20.930;2023-05-19T04:40:28;101400.94;;;11.96;98.26
30724;BME280;17473;52.286;20.930;2023-05-19T04:42:57;101404.84;;;11.84;98.18
30724;BME280;17473;52.286;20.930;2023-05-19T04:45:24;101406.88;;;11.70;99.16
30724;BME280;17473;52.286;20.930;2023-05-19T04:47:52;101408.78;;;11.74;100.00
30724;BME280;17473;52.286;20.930;2023-05-19T04:50:23;101394.00;;;11.78;99.80
30724;BME280;17473;52.286;20.930;2023-05-19T04:52:51;101401.84;;;11.77;98.88
30724;BME280;17473;52.286;20.930;2023-05-19T04:55:18;101405.81;;;11.86;98.36
30724;BME280;17473;52.286;20.930;2023-05-19T04:57:45;101408.47;;;11.86;98.28
30724;BME280;17473;52.286;20.930;2023-05-19T05:00:13;101411.53;;;11.76;96.62
30724;BME280;17473;52.286;20.930;2023-05-19T05:02:40;101400.25;;;11.61;98.89
30724;BME280;17473;52.286;20.930;2023-05-19T05:05:08;101408.53;;;11.68;98.91
30724;BME280;17473;52.286;20.930;2023-05-19T05:07:36;101410.34;;;11.69;98.78
30724;BME280;17473;52.286;20.930;2023-05-19T05:10:03;101404.22;;;11.70;99.61
30724;BME280;17473;52.286;20.930;2023-05-19T05:12:31;101408.44;;;11.47;100.00
30724;BME280;17473;52.286;20.930;2023-05-19T05:14:59;101408.69;;;11.71;100.00
30724;BME280;17473;52.286;20.930;2023-05-19T05:17:26;101408.47;;;11.67;100.00
30724;BME280;17473;52.286;20.930;2023-05-19T05:19:54;101404.00;;;11.66;99.86
30724;BME280;17473;52.286;20.930;2023-05-19T05:22:22;101408.53;;;11.68;100.00
30724;BME280;17473;52.286;20.930;2023-05-19T05:24:49;101401.41;;;11.87;99.76
30724;BME280;17473;52.286;20.930;2023-05-19T05:27:16;101406.81;;;11.69;100.00
30724;BME280;17473;52.286;20.930;2023-05-19T05:29:43;101406.47;;;12.00;98.56
30724;BME280;17473;52.286;20.930;2023-05-19T05:32:11;101404.91;;;11.86;100.00
30724;BME280;17473;52.286;20.930;2023-05-19T05:34:38;101410.59;;;11.95;99.52
30724;BME280;17473;52.286;20.930;2023-05-19T05:37:06;101402.69;;;12.15;97.63
30724;BME280;17473;52.286;20.930;2023-05-19T05:39:33;101412.94;;;11.68;99.83
30724;BME280;17473;52.286;20.930;2023-05-19T05:42:01;101407.22;;;11.58;100.00
30724;BME280;17473;52.286;20.930;2023-05-19T05:44:28;101406.72;;;11.87;98.59
30724;BME280;17473;52.286;20.930;2023-05-19T05:46:56;101404.78;;;11.83;99.68
30724;BME280;17473;52.286;20.930;2023-05-19T05:49:23;101392.84;;;11.53;100.00
30724;BME280;17473;52.286;20.930;2023-05-19T05:51:50;101401.16;;;11.61;100.00
30724;BME280;17473;52.286;20.930;2023-05-19T05:54:32;101403.38;;;11.71;100.00
30724;BME280;17473;52.286;20.930;2023-05-19T05:56:59;101411.88;;;11.64;100.00
30724;BME280;17473;52.286;20.930;2023-05-19T05:59:28;101402.31;;;11.28;100.00
30724;BME280;17473;52.286;20.930;2023-05-19T06:01:55;101406.31;;;11.38;100.00
30724;BME280;17473;52.286;20.930;2023-05-19T06:04:22;101409.50;;;11.51;100.00
30724;BME280;17473;52.286;20.930;2023-05-19T06:06:51;101406.78;;;11.49;100.00
30724;BME280;17473;52.286;20.930;2023-05-19T06:09:18;101409.09;;;11.61;100.00
30724;BME280;17473;52.286;20.930;2023-05-19T06:11:45;101401.28;;;11.84;100.00
30724;BME280;17473;52.286;20.930;2023-05-19T06:14:12;101410.75;;;11.79;100.00
30724;BME280;17473;52.286;20.930;2023-05-19T06:16:40;101407.44;;;11.83;100.00
30724;BME280;17473;52.286;20.930;2023-05-19T06:19:07;101413.41;;;11.79;100.00
30724;BME280;17473;52.286;20.930;2023-05-19T06:21:34;101412.63;;;11.62;100.00
30724;BME280;17473;52.286;20.930;2023-05-19T06:24:01;101413.41;;;11.79;100.00
30724;BME280;17473;52.286;20.930;2023-05-19T06:26:28;101414.97;;;11.73;100.00
30724;BME280;17473;52.286;20.930;2023-05-19T06:28:55;101412.31;;;11.73;100.00
30724;BME280;17473;52.286;20.930;2023-05-19T06:31:23;101412.41;;;11.96;100.00
30724;BME280;17473;52.286;20.930;2023-05-19T06:33:52;101412.81;;;12.04;100.00
30724;BME280;17473;52.286;20.930;2023-05-19T06:36:19;101404.47;;;11.96;100.00
30724;BME280;17473;52.286;20.930;2023-05-19T06:38:46;101415.66;;;12.09;100.00
30724;BME280;17473;52.286;20.930;2023-05-19T06:41:13;101415.47;;;12.25;100.00
30724;BME280;17473;52.286;20.930;2023-05-19T06:43:41;101409.00;;;12.18;100.00
30724;BME280;17473;52.286;20.930;2023-05-19T06:46:09;101409.25;;;12.25;100.00
30724;BME280;17473;52.286;20.930;2023-05-19T06:48:38;101408.81;;;12.14;100.00
30724;BME280;17473;52.286;20.930;2023-05-19T06:51:05;101404.63;;;12.19;100.00
30724;BME280;17473;52.286;20.930;2023-05-19T06:53:33;101407.66;;;12.28;100.00
30724;BME280;17473;52.286;20.930;2023-05-19T06:56:00;101407.34;;;12.20;100.00
30724;BME280;17473;52.286;20.930;2023-05-19T06:58:27;101397.75;;;12.03;100.00
30724;BME280;17473;52.286;20.930;2023-05-19T07:00:54;101404.03;;;12.05;100.00
30724;BME280;17473;52.286;20.930;2023-05-19T07:03:22;101409.53;;;12.10;100.00
30724;BME280;17473;52.286;20.930;2023-05-19T07:05:49;101397.88;;;12.06;100.00
30724;BME280;17473;52.286;20.930;2023-05-19T07:08:16;101399.56;;;12.04;100.00
30724;BME280;17473;52.286;20.930;2023-05-19T07:10:43;101395.78;;;12.18;100.00
30724;BME280;17473;52.286;20.930;2023-05-19T07:13:10;101401.63;;;11.92;100.00
30724;BME280;17473;52.286;20.930;2023-05-19T07:15:38;101400.44;;;12.24;100.00
30724;BME280;17473;52.286;20.930;2023-05-19T07:18:05;101397.34;;;12.34;100.00
30724;BME280;17473;52.286;20.930;2023-05-19T07:20:32;101402.44;;;12.30;100.00
30724;BME280;17473;52.286;20.930;2023-05-19T07:22:59;101400.25;;;12.41;100.00
30724;BME280;17473;52.286;20.930;2023-05-19T07:25:28;101395.97;;;12.44;100.00
30724;BME280;17473;52.286;20.930;2023-05-19T07:27:56;101402.63;;;12.34;100.00
30724;BME280;17473;52.286;20.930;2023-05-19T07:30:26;101402.59;;;12.54;100.00
30724;BME280;17473;52.286;20.930;2023-05-19T07:32:53;101401.59;;;12.31;100.00
30724;BME280;17473;52.286;20.930;2023-05-19T07:35:21;101406.13;;;12.33;100.00
30724;BME280;17473;52.286;20.930;2023-05-19T07:37:50;101405.59;;;12.42;100.00
30724;BME280;17473;52.286;20.930;2023-05-19T07:40:18;101410.63;;;12.36;100.00
30724;BME280;17473;52.286;20.930;2023-05-19T07:42:46;101408.19;;;12.19;100.00
30724;BME280;17473;52.286;20.930;2023-05-19T07:45:13;101404.88;;;12.25;100.00
30724;BME280;17473;52.286;20.930;2023-05-19T07:47:40;101402.19;;;12.24;100.00
30724;BME280;17473;52.286;20.930;2023-05-19T07:50:08;101408.34;;;12.03;100.00
30724;BME280;17473;52.286;20.930;2023-05-19T07:52:35;101406.78;;;12.08;100.00
30724;BME280;17473;52.286;20.930;2023-05-19T07:55:02;101409.75;;;12.35;100.00
30724;BME280;17473;52.286;20.930;2023-05-19T07:57:29;101408.31;;;12.23;100.00
30724;BME280;17473;52.286;20.930;2023-05-19T07:59:58;101408.56;;;12.29;100.00
30724;BME280;17473;52.286;20.930;2023-05-19T08:02:25;101402.84;;;12.39;100.00
30724;BME280;17473;52.286;20.930;2023-05-19T08:04:52;101402.03;;;12.63;100.00
30724;BME280;17473;52.286;20.930;2023-05-19T08:07:20;101407.09;;;12.14;100.00
30724;BME280;17473;52.286;20.930;2023-05-19T08:09:47;101402.03;;;12.20;100.00
30724;BME280;17473;52.286;20.930;2023-05-19T08:12:17;101404.66;;;12.40;100.00
30724;BME280;17473;52.286;20.930;2023-05-19T08:14:44;101400.38;;;12.23;100.00
30724;BME280;17473;52.286;20.930;2023-05-19T08:17:11;101408.91;;;12.36;100.00
30724;BME280;17473;52.286;20.930;2023-05-19T08:19:38;101412.50;;;12.39;100.00
30724;BME280;17473;52.286;20.930;2023-05-19T08:22:06;101406.72;;;12.47;100.00
30724;BME280;17473;52.286;20.930;2023-05-19T08:24:33;101398.63;;;12.44;100.00
30724;BME280;17473;52.286;20.930;2023-05-19T08:27:00;101407.28;;;12.40;100.00
30724;BME280;17473;52.286;20.930;2023-05-19T08:29:27;101407.41;;;12.43;100.00
30724;BME280;17473;52.286;20.930;2023-05-19T08:31:54;101406.69;;;12.26;100.00
30724;BME280;17473;52.286;20.930;2023-05-19T08:34:21;101401.47;;;12.28;100.00
30724;BME280;17473;52.286;20.930;2023-05-19T08:36:48;101403.28;;;12.29;100.00
30724;BME280;17473;52.286;20.930;2023-05-19T08:39:15;101409.16;;;12.21;100.00
30724;BME280;17473;52.286;20.930;2023-05-19T08:41:45;101400.81;;;12.33;100.00
30724;BME280;17473;52.286;20.930;2023-05-19T08:44:12;101403.63;;;12.36;100.00
30724;BME280;17473;52.286;20.930;2023-05-19T08:46:40;101401.22;;;12.43;100.00
30724;BME280;17473;52.286;20.930;2023-05-19T08:49:11;101407.53;;;12.67;100.00
30724;BME280;17473;52.286;20.930;2023-05-19T08:52:18;101404.06;;;12.68;100.00
30724;BME280;17473;52.286;20.930;2023-05-19T08:54:54;101391.59;;;12.66;100.00
30724;BME280;17473;52.286;20.930;2023-05-19T08:57:27;101398.22;;;12.56;100.00
30724;BME280;17473;52.286;20.930;2023-05-19T08:59:55;101395.13;;;12.66;100.00
30724;BME280;17473;52.286;20.930;2023-05-19T09:02:22;101399.31;;;12.82;99.96
30724;BME280;17473;52.286;20.930;2023-05-19T09:04:50;101399.44;;;12.86;100.00
30724;BME280;17473;52.286;20.930;2023-05-19T09:07:19;101406.53;;;12.87;99.99
30724;BME280;17473;52.286;20.930;2023-05-19T09:09:48;101401.97;;;12.82;99.30
30724;BME280;17473;52.286;20.930;2023-05-19T09:12:15;101396.25;;;12.94;100.00
30724;BME280;17473;52.286;20.930;2023-05-19T09:14:42;101406.16;;;12.98;100.00
30724;BME280;17473;52.286;20.930;2023-05-19T09:17:09;101403.91;;;13.09;100.00
30724;BME280;17473;52.286;20.930;2023-05-19T09:19:43;101400.06;;;13.01;99.75
30724;BME280;17473;52.286;20.930;2023-05-19T09:22:10;101401.59;;;12.96;100.00
30724;BME280;17473;52.286;20.930;2023-05-19T09:24:37;101408.75;;;13.20;98.76
30724;BME280;17473;52.286;20.930;2023-05-19T09:27:07;101410.28;;;13.14;97.34
30724;BME280;17473;52.286;20.930;2023-05-19T09:29:34;101411.31;;;13.39;94.87
30724;BME280;17473;52.286;20.930;2023-05-19T09:32:01;101409.00;;;13.49;92.58
30724;BME280;17473;52.286;20.930;2023-05-19T09:34:32;101403.97;;;13.34;92.94
30724;BME280;17473;52.286;20.930;2023-05-19T09:36:59;101402.78;;;13.48;95.07
30724;BME280;17473;52.286;20.930;2023-05-19T09:39:26;101404.09;;;13.59;95.02
30724;BME280;17473;52.286;20.930;2023-05-19T09:41:55;101404.66;;;13.51;93.18
30724;BME280;17473;52.286;20.930;2023-05-19T09:44:25;101407.09;;;13.69;91.55
30724;BME280;17473;52.286;20.930;2023-05-19T09:46:57;101404.44;;;13.69;93.66
30724;BME280;17473;52.286;20.930;2023-05-19T09:49:28;101397.13;;;13.39;96.28
30724;BME280;17473;52.286;20.930;2023-05-19T09:51:58;101407.13;;;13.46;94.80
30724;BME280;17473;52.286;20.930;2023-05-19T09:54:25;101406.53;;;13.77;92.71
30724;BME280;17473;52.286;20.930;2023-05-19T09:56:59;101404.44;;;13.69;92.76
30724;BME280;17473;52.286;20.930;2023-05-19T09:59:27;101401.00;;;13.71;92.87
30724;BME280;17473;52.286;20.930;2023-05-19T10:01:59;101409.25;;;13.79;91.93
30724;BME280;17473;52.286;20.930;2023-05-19T10:04:28;101400.69;;;13.64;93.92
30724;BME280;17473;52.286;20.930;2023-05-19T10:06:57;101406.19;;;13.68;91.82
30724;BME280;17473;52.286;20.930;2023-05-19T10:09:28;101400.81;;;13.67;92.08
30724;BME280;17473;52.286;20.930;2023-05-19T10:11:57;101398.38;;;13.73;91.58
30724;BME280;17473;52.286;20.930;2023-05-19T10:14:26;101409.69;;;13.67;91.09
30724;BME280;17473;52.286;20.930;2023-05-19T10:16:56;101404.94;;;13.58;91.84
30724;BME280;17473;52.286;20.930;2023-05-19T10:19:26;101398.72;;;13.82;89.68
30724;BME280;17473;52.286;20.930;2023-05-19T10:21:54;101388.09;;;13.82;90.32
30724;BME280;17473;52.286;20.930;2023-05-19T10:24:22;101400.94;;;13.45;93.73
30724;BME280;17473;52.286;20.930;2023-05-19T10:29:25;101373.81;;;13.54;92.49
30724;BME280;17473;52.286;20.930;2023-05-19T10:31:57;101383.31;;;13.72;91.10
30724;BME280;17473;52.286;20.930;2023-05-19T10:38:11;101390.47;;;13.99;91.86
30724;BME280;17473;52.286;20.930;2023-05-19T10:41:09;101385.78;;;13.91;91.81
30724;BME280;17473;52.286;20.930;2023-05-19T10:43:54;101387.88;;;14.00;91.57
30724;BME280;17473;52.286;20.930;2023-05-19T10:46:26;101388.25;;;14.11;92.18
30724;BME280;17473;52.286;20.930;2023-05-19T10:48:54;101383.50;;;14.80;88.10
30724;BME280;17473;52.286;20.930;2023-05-19T10:51:31;101387.78;;;14.75;88.06
30724;BME280;17473;52.286;20.930;2023-05-19T10:54:01;101388.72;;;14.51;87.41
30724;BME280;17473;52.286;20.930;2023-05-19T10:56:30;101388.59;;;14.48;85.73
30724;BME280;17473;52.286;20.930;2023-05-19T10:59:02;101393.59;;;14.90;84.70
30724;BME280;17473;52.286;20.930;2023-05-19T11:01:36;101391.06;;;14.95;84.82
30724;BME280;17473;52.286;20.930;2023-05-19T11:04:09;101387.53;;;15.54;82.46
30724;BME280;17473;52.286;20.930;2023-05-19T11:06:38;101392.09;;;15.27;81.15
30724;BME280;17473;52.286;20.930;2023-05-19T11:14:13;101394.34;;;14.86;83.85
30724;BME280;17473;52.286;20.930;2023-05-19T11:16:40;101386.47;;;15.18;84.10
30724;BME280;17473;52.286;20.930;2023-05-19T11:19:16;101385.56;;;15.17;83.08
30724;BME280;17473;52.286;20.930;2023-05-19T11:21:50;101389.50;;;15.30;79.97
30724;BME280;17473;52.286;20.930;2023-05-19T11:24:33;101393.63;;;15.19;81.66
30724;BME280;17473;52.286;20.930;2023-05-19T11:27:27;101392.78;;;14.93;81.08
30724;BME280;17473;52.286;20.930;2023-05-19T11:30:08;101391.22;;;14.99;80.63
30724;BME280;17473;52.286;20.930;2023-05-19T11:32:40;101393.00;;;15.29;80.98
30724;BME280;17473;52.286;20.930;2023-05-19T11:35:09;101388.38;;;15.22;79.78
30724;BME280;17473;52.286;20.930;2023-05-19T11:37:36;101398.06;;;14.91;81.58
30724;BME280;17473;52.286;20.930;2023-05-19T11:40:06;101393.47;;;14.87;82.56
30724;BME280;17473;52.286;20.930;2023-05-19T11:42:35;101393.75;;;14.95;82.90
30724;BME280;17473;52.286;20.930;2023-05-19T11:45:04;101389.72;;;14.80;84.09
30724;BME280;17473;52.286;20.930;2023-05-19T11:47:31;101395.69;;;15.00;81.69
30724;BME280;17473;52.286;20.930;2023-05-19T11:50:18;101396.75;;;14.78;81.82
30724;BME280;17473;52.286;20.930;2023-05-19T11:52:46;101394.88;;;15.03;80.25
30724;BME280;17473;52.286;20.930;2023-05-19T11:55:20;101396.72;;;15.06;81.22
30724;BME280;17473;52.286;20.930;2023-05-19T11:57:59;101391.13;;;14.96;82.60
30724;BME280;17473;52.286;20.930;2023-05-19T12:00:36;101390.38;;;15.00;81.80
30724;BME280;17473;52.286;20.930;2023-05-19T12:03:05;101394.38;;;15.16;81.90
30724;BME280;17473;52.286;20.930;2023-05-19T12:05:37;101402.22;;;15.41;82.27
30724;BME280;17473;52.286;20.930;2023-05-19T12:08:10;101394.91;;;15.33;80.93
30724;BME280;17473;52.286;20.930;2023-05-19T12:10:38;101398.53;;;15.36;80.13
30724;BME280;17473;52.286;20.930;2023-05-19T12:13:06;101401.41;;;15.43;79.36
30724;BME280;17473;52.286;20.930;2023-05-19T12:15:36;101396.44;;;15.25;81.29
30724;BME280;17473;52.286;20.930;2023-05-19T12:18:05;101391.31;;;15.31;80.99
30724;BME280;17473;52.286;20.930;2023-05-19T12:20:33;101390.69;;;15.40;81.59
30724;BME280;17473;52.286;20.930;2023-05-19T12:23:02;101398.00;;;15.47;78.92
30724;BME280;17473;52.286;20.930;2023-05-19T12:25:30;101389.44;;;15.27;80.97
30724;BME280;17473;52.286;20.930;2023-05-19T12:28:01;101393.91;;;15.59;79.68
30724;BME280;17473;52.286;20.930;2023-05-19T12:30:31;101388.38;;;15.22;80.78
30724;BME280;17473;52.286;20.930;2023-05-19T12:33:01;101391.97;;;15.24;80.92
30724;BME280;17473;52.286;20.930;2023-05-19T12:35:30;101393.25;;;15.37;81.95
30724;BME280;17473;52.286;20.930;2023-05-19T12:38:04;101392.00;;;15.55;80.30
30724;BME280;17473;52.286;20.930;2023-05-19T12:40:35;101392.03;;;15.56;79.61
30724;BME280;17473;52.286;20.930;2023-05-19T12:43:04;101375.44;;;15.65;79.58
30724;BME280;17473;52.286;20.930;2023-05-19T12:45:35;101385.28;;;15.69;77.92
30724;BME280;17473;52.286;20.930;2023-05-19T12:48:09;101389.50;;;15.30;79.80
30724;BME280;17473;52.286;20.930;2023-05-19T12:50:37;101393.75;;;15.24;80.21
30724;BME280;17473;52.286;20.930;2023-05-19T12:53:08;101384.19;;;15.01;83.17
30724;BME280;17473;52.286;20.930;2023-05-19T12:55:41;101379.78;;;15.31;81.46
30724;BME280;17473;52.286;20.930;2023-05-19T12:58:11;101382.28;;;15.86;78.53
30724;BME280;17473;52.286;20.930;2023-05-19T13:00:44;101382.72;;;15.72;78.93
30724;BME280;17473;52.286;20.930;2023-05-19T13:03:18;101371.22;;;15.73;78.50
30724;BME280;17473;52.286;20.930;2023-05-19T13:05:49;101376.00;;;15.84;78.46
30724;BME280;17473;52.286;20.930;2023-05-19T13:08:19;101383.91;;;15.82;78.28
30724;BME280;17473;52.286;20.930;2023-05-19T13:10:47;101379.66;;;15.89;78.08
30724;BME280;17473;52.286;20.930;2023-05-19T13:13:17;101379.63;;;15.57;79.77
30724;BME280;17473;52.286;20.930;2023-05-19T13:15:46;101386.81;;;15.90;77.63
30724;BME280;17473;52.286;20.930;2023-05-19T13:18:16;101371.97;;;15.69;77.98
30724;BME280;17473;52.286;20.930;2023-05-19T13:20:45;101382.13;;;15.51;80.25
30724;BME280;17473;52.286;20.930;2023-05-19T13:23:13;101378.47;;;15.77;78.87
30724;BME280;17473;52.286;20.930;2023-05-19T13:25:41;101387.09;;;15.70;78.63